• Join FlightAware (Why Join?)
  • Login
  • US Flag 
05:34PM EDT


 

Airport Tracker/Info


-or-


 

Live Flight TrackerFlight Track Log ✈ UAL6057 ✈ 01-May-2013 ✈ KORD - KBNA

Flight Track Log - Related Links

Times and Time Zones

All times are in EDT time to prevent confusion due to time zone crossing. See the UAL6057 flight status page for this flight to view local times or setup timezone preferences in your user account.

Time Position Orientation Groundspeed Altitude Reporting Facility
EDT Latitude Longitude Course Direction KTS MPH feet Rate Location/Type
10:48PM 41.9333 -87.9167 180° South 175 201 2,600  Level Chicago TRACON
10:49PM 41.8833 -87.9167 180° South 216 249 4,300 2,340 Climbing Chicago TRACON
10:50PM 41.8167 -87.9167 180° South 247 284 7,100 2,460 Climbing Chicago TRACON
10:51PM 41.7392 -87.9133 178° South 252 290 9,800 2,160 Climbing Chicago Center
10:52PM 41.6622 -87.9056 176° South 274 315 12,000 2,340 Climbing Chicago Center
10:53PM 41.5647 -87.8950 175° South 290 334 14,600 1,680 Climbing Chicago Center
10:54PM 41.4708 -87.8839 175° South 332 382 15,500 1,260 Climbing Chicago Center
10:55PM 41.3708 -87.8792 178° South 350 403 17,200 1,380 Climbing Chicago Center
10:56PM 41.2694 -87.8919 185° South 361 415 18,400 1,500 Climbing Chicago Center
10:57PM 41.1658 -87.8908 180° South 369 425 20,300 1,680 Climbing Chicago Center
10:58PM 41.0622 -87.8878 179° South 372 428 21,900 1,860 Climbing Chicago Center
10:59PM 40.9597 -87.8844 179° South 370 426 24,100 2,100 Climbing Chicago Center
11:00PM 40.8608 -87.8803 178° South 361 415 26,200 1,860 Climbing Chicago Center
11:01PM 40.7633 -87.8775 179° South 352 405 28,000 1,620 Climbing Chicago Center
11:02PM 40.6689 -87.8744 179° South 344 396 29,600 1,500 Climbing Chicago Center
11:03PM 40.5756 -87.8722 179° South 338 389 31,100 1,320 Climbing Chicago Center
11:04PM 40.4608 -87.8686 179° South 345 397 32,400 840 Climbing Chicago Center
11:05PM 40.3608 -87.8567 175° South 362 417 32,900 300 Climbing Chicago Center
11:06PM 40.2744 -87.8392 171° South 376 433 33,000  Climbing Indianapolis Center
11:07PM 40.1594 -87.8150 171° South 406 467 33,000  Level Indianapolis Center
11:08PM 40.0381 -87.7906 171° South 429 494 33,000  Level Indianapolis Center
11:09PM 39.9164 -87.7653 171° South 438 504 33,000  Level Indianapolis Center
11:10PM 39.7947 -87.7414 171° South 440 506 33,000  Level Indianapolis Center
11:11PM 39.6728 -87.7139 170° South 442 509 33,000  Level Indianapolis Center
11:12PM 39.5497 -87.6906 172° South 444 511 33,000  Level Indianapolis Center
11:13PM 39.4269 -87.6656 171° South 445 512 33,000  Level Indianapolis Center
11:14PM 39.3036 -87.6397 171° South 446 513 33,000  Level Indianapolis Center
11:15PM 39.1806 -87.6147 171° South 448 516 33,000  Level Indianapolis Center
11:16PM 39.0553 -87.5897 171° South 451 519 33,000  Level Indianapolis Center
11:17PM 38.9328 -87.5639 171° South 446 513 33,000  Level Indianapolis Center
11:18PM 38.7836 -87.5353 171° South 450 518 33,000  Level Indianapolis Center
11:19PM 38.6592 -87.5111 171° South 452 520 33,000  Level Indianapolis Center
11:20PM 38.5356 -87.4856 171° South 450 518 33,000  Level Indianapolis Center
11:21PM 38.4117 -87.4622 172° South 452 520 33,000  Level Indianapolis Center
11:22PM 38.2892 -87.4381 171° South 449 517 33,000  Level Indianapolis Center
11:23PM 38.1658 -87.4139 171° South 452 520 33,000  Level Indianapolis Center
11:24PM 38.0431 -87.3900 171° South 450 518 33,000 -180 Level Indianapolis Center
11:25PM 37.9200 -87.3653 171° South 449 517 32,700 -1,020 Descending Indianapolis Center
11:26PM 37.7961 -87.3408 171° South 451 519 31,000 -1,920 Descending Indianapolis Center
11:27PM 37.6642 -87.3156 171° South 456 525 28,800 -2,400 Descending Indianapolis Center
11:28PM 37.5733 -87.2983 171° South 459 528 27,200 -2,640 Descending Memphis Center
11:29PM 37.4478 -87.2772 172° South 459 528 24,700 -2,100 Descending Memphis Center
11:30PM 37.3325 -87.2503 169° South 442 509 23,000 -900 Descending Memphis Center
11:31PM 37.2272 -87.2050 161° South 415 478 23,000 -600 Level Memphis Center
11:32PM 37.1197 -87.1519 159° South 409 471 21,800 -1,680 Descending Memphis Center
11:33PM 37.0183 -87.1042 159° South 409 471 19,700 -2,100 Descending Memphis Center
11:34PM 36.9169 -87.0564 159° South 399 459 17,700 -2,100 Descending Memphis Center
11:35PM 36.8158 -87.0061 158° South 394 453 15,500 -1,980 Descending Memphis Center
11:36PM 36.7292 -86.9656 159° South 389 448 13,800 -1,860 Descending Memphis Center
11:37PM 36.6358 -86.9100 154° Southeast 377 434 11,800 -1,800 Descending Memphis Center
11:38PM 36.5592 -86.8514 148° Southeast 348 400 10,200 -1,560 Descending Memphis Center
11:39PM 36.4911 -86.8028 150° Southeast 300 345 8,700 -1,680 Descending Memphis Center
11:40PM 36.4231 -86.7514 149° Southeast 278 320 6,900 -1,800 Descending Memphis Center
11:41PM 36.3553 -86.7133 156° South 264 304 5,100 -1,800 Descending Memphis Center
11:42PM 36.2875 -86.6856 162° South 259 298 3,300 -1,560 Descending Memphis Center
11:43PM 36.2242 -86.6575 160° South 251 289 2,000 -1,020 Descending Memphis Center
11:44PM 36.1744 -86.6672 189° South 202 232 1,300 -600 Descending Memphis Center
11:45PM 36.1436 -86.6764 194° South 160 184 800 -300 Descending Memphis Center
11:46PM 36.0936 -86.6839 187° South 160 184 700 -120 Descending Memphis Center
11:51PM 36.1245 -86.6782 13° North  Level Estimated
11:58PM 36.1245 -86.6782 13° North  Level Estimated
11:59PM 36.1245 -86.6782 13° North  Level Estimated
12:00AM 36.1245 -86.6782 13° North  Level Estimated
12:01AM 36.1245 -86.6782 13° North  Level Estimated
12:02AM 36.1245 -86.6782 13° North  Level Estimated
12:03AM 36.1245 -86.6782 13° North  Level Estimated
12:04AM 36.1245 -86.6782 13° North  Level Estimated
12:05AM 36.1245 -86.6782 13° North  Level Estimated
12:06AM 36.1245 -86.6782 13° North  Level Estimated
12:07AM 36.1245 -86.6782 13° North  Level Estimated